sensor_id;sensor_type;location;lat;lon;timestamp;temperature;humidity
8595;DHT22;4335;48.860;9.198;2023-12-29T00:00:35;9.30;99.90
8595;DHT22;4335;48.860;9.198;2023-12-29T00:03:03;9.30;99.90
8595;DHT22;4335;48.860;9.198;2023-12-29T00:05:32;9.30;99.90
8595;DHT22;4335;48.860;9.198;2023-12-29T00:07:59;9.30;99.90
8595;DHT22;4335;48.860;9.198;2023-12-29T00:10:30;9.30;99.90
8595;DHT22;4335;48.860;9.198;2023-12-29T00:13:00;9.30;99.90
8595;DHT22;4335;48.860;9.198;2023-12-29T00:15:28;9.40;99.90
8595;DHT22;4335;48.860;9.198;2023-12-29T00:17:55;9.40;99.90
8595;DHT22;4335;48.860;9.198;2023-12-29T00:20:23;9.40;99.90
8595;DHT22;4335;48.860;9.198;2023-12-29T00:22:54;9.40;99.90
8595;DHT22;4335;48.860;9.198;2023-12-29T00:25:24;9.40;99.90
8595;DHT22;4335;48.860;9.198;2023-12-29T00:27:51;9.50;99.90
8595;DHT22;4335;48.860;9.198;2023-12-29T00:30:19;9.50;99.90
8595;DHT22;4335;48.860;9.198;2023-12-29T00:32:47;9.60;99.90
8595;DHT22;4335;48.860;9.198;2023-12-29T00:35:14;9.60;99.90
8595;DHT22;4335;48.860;9.198;2023-12-29T00:37:41;9.60;99.90
8595;DHT22;4335;48.860;9.198;2023-12-29T00:40:10;9.70;99.90
8595;DHT22;4335;48.860;9.198;2023-12-29T00:42:41;9.70;99.90
8595;DHT22;4335;48.860;9.198;2023-12-29T00:45:11;9.70;99.90
8595;DHT22;4335;48.860;9.198;2023-12-29T00:47:39;9.70;99.90
8595;DHT22;4335;48.860;9.198;2023-12-29T00:50:13;9.70;99.90
8595;DHT22;4335;48.860;9.198;2023-12-29T00:52:44;9.70;99.90
8595;DHT22;4335;48.860;9.198;2023-12-29T00:55:15;9.70;99.90
8595;DHT22;4335;48.860;9.198;2023-12-29T00:57:46;9.80;99.90
8595;DHT22;4335;48.860;9.198;2023-12-29T01:00:16;9.80;99.90
8595;DHT22;4335;48.860;9.198;2023-12-29T01:02:47;9.80;99.90
8595;DHT22;4335;48.860;9.198;2023-12-29T01:05:15;9.80;99.90
8595;DHT22;4335;48.860;9.198;2023-12-29T01:08:01;9.90;99.90
8595;DHT22;4335;48.860;9.198;2023-12-29T01:10:31;9.90;99.90
8595;DHT22;4335;48.860;9.198;2023-12-29T01:13:07;9.80;99.90
8595;DHT22;4335;48.860;9.198;2023-12-29T01:15:38;9.80;99.90
8595;DHT22;4335;48.860;9.198;2023-12-29T01:18:06;9.80;99.90
8595;DHT22;4335;48.860;9.198;2023-12-29T01:20:40;9.90;99.90
8595;DHT22;4335;48.860;9.198;2023-12-29T01:23:07;9.80;99.90
8595;DHT22;4335;48.860;9.198;2023-12-29T01:25:36;9.90;99.90
8595;DHT22;4335;48.860;9.198;2023-12-29T01:28:10;9.90;99.90
8595;DHT22;4335;48.860;9.198;2023-12-29T01:30:37;9.90;99.90
8595;DHT22;4335;48.860;9.198;2023-12-29T01:33:05;9.90;99.90
8595;DHT22;4335;48.860;9.198;2023-12-29T01:35:35;9.90;99.90
8595;DHT22;4335;48.860;9.198;2023-12-29T01:38:04;10.00;99.90
8595;DHT22;4335;48.860;9.198;2023-12-29T01:40:31;10.00;99.90
8595;DHT22;4335;48.860;9.198;2023-12-29T01:43:00;10.00;99.90
8595;DHT22;4335;48.860;9.198;2023-12-29T01:45:31;10.00;99.90
8595;DHT22;4335;48.860;9.198;2023-12-29T01:48:06;10.00;99.90
8595;DHT22;4335;48.860;9.198;2023-12-29T01:50:33;10.00;99.90
8595;DHT22;4335;48.860;9.198;2023-12-29T01:53:05;10.10;99.90
8595;DHT22;4335;48.860;9.198;2023-12-29T01:55:33;10.00;99.90
8595;DHT22;4335;48.860;9.198;2023-12-29T01:58:03;10.00;99.90
8595;DHT22;4335;48.860;9.198;2023-12-29T02:00:30;10.10;99.90
8595;DHT22;4335;48.860;9.198;2023-12-29T02:02:58;10.10;99.90
8595;DHT22;4335;48.860;9.198;2023-12-29T02:05:27;10.10;99.90
8595;DHT22;4335;48.860;9.198;2023-12-29T02:07:59;10.10;99.90
8595;DHT22;4335;48.860;9.198;2023-12-29T02:10:28;10.10;99.90
8595;DHT22;4335;48.860;9.198;2023-12-29T02:12:55;10.10;99.90
8595;DHT22;4335;48.860;9.198;2023-12-29T02:15:29;10.10;99.90
8595;DHT22;4335;48.860;9.198;2023-12-29T02:18:02;10.10;99.90
8595;DHT22;4335;48.860;9.198;2023-12-29T02:20:42;10.10;99.90
8595;DHT22;4335;48.860;9.198;2023-12-29T02:23:16;10.10;99.90
8595;DHT22;4335;48.860;9.198;2023-12-29T02:25:45;10.20;99.90
8595;DHT22;4335;48.860;9.198;2023-12-29T02:28:22;10.20;99.90
8595;DHT22;4335;48.860;9.198;2023-12-29T02:30:54;10.20;99.90
8595;DHT22;4335;48.860;9.198;2023-12-29T02:33:25;10.20;99.90
8595;DHT22;4335;48.860;9.198;2023-12-29T02:35:56;10.20;99.90
8595;DHT22;4335;48.860;9.198;2023-12-29T02:38:26;10.20;99.90
8595;DHT22;4335;48.860;9.198;2023-12-29T02:41:02;10.20;99.90
8595;DHT22;4335;48.860;9.198;2023-12-29T02:43:31;10.30;99.90
8595;DHT22;4335;48.860;9.198;2023-12-29T02:45:59;10.30;99.90
8595;DHT22;4335;48.860;9.198;2023-12-29T02:48:28;10.30;99.90
8595;DHT22;4335;48.860;9.198;2023-12-29T02:50:55;10.30;99.90
8595;DHT22;4335;48.860;9.198;2023-12-29T02:53:25;10.20;99.90
8595;DHT22;4335;48.860;9.198;2023-12-29T02:55:59;10.30;99.90
8595;DHT22;4335;48.860;9.198;2023-12-29T02:58:27;10.30;99.90
8595;DHT22;4335;48.860;9.198;2023-12-29T03:00:58;10.30;99.90
8595;DHT22;4335;48.860;9.198;2023-12-29T03:03:25;10.20;99.90
8595;DHT22;4335;48.860;9.198;2023-12-29T03:05:53;10.20;99.90
8595;DHT22;4335;48.860;9.198;2023-12-29T03:08:26;10.20;99.90
8595;DHT22;4335;48.860;9.198;2023-12-29T03:10:53;10.10;99.90
8595;DHT22;4335;48.860;9.198;2023-12-29T03:13:30;10.20;99.90
8595;DHT22;4335;48.860;9.198;2023-12-29T03:15:58;10.10;99.90
8595;DHT22;4335;48.860;9.198;2023-12-29T03:18:25;10.10;99.90
8595;DHT22;4335;48.860;9.198;2023-12-29T03:20:52;10.10;99.90
8595;DHT22;4335;48.860;9.198;2023-12-29T03:23:23;10.10;99.90
8595;DHT22;4335;48.860;9.198;2023-12-29T03:25:56;10.10;99.90
8595;DHT22;4335;48.860;9.198;2023-12-29T03:28:26;10.10;99.90
8595;DHT22;4335;48.860;9.198;2023-12-29T03:30:55;10.10;99.90
8595;DHT22;4335;48.860;9.198;2023-12-29T03:33:26;10.00;99.90
8595;DHT22;4335;48.860;9.198;2023-12-29T03:35:53;10.00;99.90
8595;DHT22;4335;48.860;9.198;2023-12-29T03:38:20;9.90;99.90
8595;DHT22;4335;48.860;9.198;2023-12-29T03:40:51;9.90;99.90
8595;DHT22;4335;48.860;9.198;2023-12-29T03:43:18;9.90;99.90
8595;DHT22;4335;48.860;9.198;2023-12-29T03:45:52;9.90;99.90
8595;DHT22;4335;48.860;9.198;2023-12-29T03:48:23;9.90;99.90
8595;DHT22;4335;48.860;9.198;2023-12-29T03:50:54;9.90;99.90
8595;DHT22;4335;48.860;9.198;2023-12-29T03:53:21;9.90;99.90
8595;DHT22;4335;48.860;9.198;2023-12-29T03:55:48;9.90;99.90
8595;DHT22;4335;48.860;9.198;2023-12-29T03:58:16;9.90;99.90
8595;DHT22;4335;48.860;9.198;2023-12-29T04:00:43;9.90;99.90
8595;DHT22;4335;48.860;9.198;2023-12-29T04:03:13;9.90;99.90
8595;DHT22;4335;48.860;9.198;2023-12-29T04:05:42;9.90;99.90
8595;DHT22;4335;48.860;9.198;2023-12-29T04:08:10;9.90;99.90
8595;DHT22;4335;48.860;9.198;2023-12-29T04:10:39;9.90;99.90
8595;DHT22;4335;48.860;9.198;2023-12-29T04:13:06;9.90;99.90
8595;DHT22;4335;48.860;9.198;2023-12-29T04:15:44;9.80;99.90
8595;DHT22;4335;48.860;9.198;2023-12-29T04:18:12;9.80;99.90
8595;DHT22;4335;48.860;9.198;2023-12-29T04:20:44;9.80;99.90
8595;DHT22;4335;48.860;9.198;2023-12-29T04:23:11;9.80;99.90
8595;DHT22;4335;48.860;9.198;2023-12-29T04:25:39;9.70;99.90
8595;DHT22;4335;48.860;9.198;2023-12-29T04:28:09;9.80;99.90
8595;DHT22;4335;48.860;9.198;2023-12-29T04:30:37;9.70;99.90
8595;DHT22;4335;48.860;9.198;2023-12-29T04:33:10;9.70;99.90
8595;DHT22;4335;48.860;9.198;2023-12-29T04:35:42;9.70;99.90
8595;DHT22;4335;48.860;9.198;2023-12-29T04:38:12;9.70;99.90
8595;DHT22;4335;48.860;9.198;2023-12-29T04:40:43;9.70;99.90
8595;DHT22;4335;48.860;9.198;2023-12-29T04:43:11;9.70;99.90
8595;DHT22;4335;48.860;9.198;2023-12-29T04:45:42;9.70;99.90
8595;DHT22;4335;48.860;9.198;2023-12-29T04:48:15;9.70;99.90
8595;DHT22;4335;48.860;9.198;2023-12-29T04:50:47;9.70;99.90
8595;DHT22;4335;48.860;9.198;2023-12-29T04:53:17;9.70;99.90
8595;DHT22;4335;48.860;9.198;2023-12-29T04:55:44;9.70;99.90
8595;DHT22;4335;48.860;9.198;2023-12-29T04:58:18;9.80;99.90
8595;DHT22;4335;48.860;9.198;2023-12-29T05:00:53;9.80;99.90
8595;DHT22;4335;48.860;9.198;2023-12-29T05:03:21;9.70;99.90
8595;DHT22;4335;48.860;9.198;2023-12-29T05:05:51;9.70;99.90
8595;DHT22;4335;48.860;9.198;2023-12-29T05:08:21;9.80;99.90
8595;DHT22;4335;48.860;9.198;2023-12-29T05:10:52;9.70;99.90
8595;DHT22;4335;48.860;9.198;2023-12-29T05:13:21;9.70;99.90
8595;DHT22;4335;48.860;9.198;2023-12-29T05:15:56;9.70;99.90
8595;DHT22;4335;48.860;9.198;2023-12-29T05:18:26;9.70;99.90
8595;DHT22;4335;48.860;9.198;2023-12-29T05:20:59;9.70;99.90
8595;DHT22;4335;48.860;9.198;2023-12-29T05:23:29;9.70;99.90
8595;DHT22;4335;48.860;9.198;2023-12-29T05:25:56;9.70;99.90
8595;DHT22;4335;48.860;9.198;2023-12-29T05:28:23;9.70;99.90
8595;DHT22;4335;48.860;9.198;2023-12-29T05:31:03;9.70;99.90
8595;DHT22;4335;48.860;9.198;2023-12-29T05:33:30;9.70;99.90
8595;DHT22;4335;48.860;9.198;2023-12-29T05:36:09;9.70;99.90
8595;DHT22;4335;48.860;9.198;2023-12-29T05:38:39;9.70;99.90
8595;DHT22;4335;48.860;9.198;2023-12-29T05:41:07;9.70;99.90
8595;DHT22;4335;48.860;9.198;2023-12-29T05:43:37;9.70;99.90
8595;DHT22;4335;48.860;9.198;2023-12-29T05:46:22;9.60;99.90
8595;DHT22;4335;48.860;9.198;2023-12-29T05:48:49;9.60;99.90
8595;DHT22;4335;48.860;9.198;2023-12-29T05:51:22;9.60;99.90
8595;DHT22;4335;48.860;9.198;2023-12-29T05:53:49;9.60;99.90
8595;DHT22;4335;48.860;9.198;2023-12-29T05:56:20;9.60;99.90
8595;DHT22;4335;48.860;9.198;2023-12-29T05:58:47;9.60;99.90
8595;DHT22;4335;48.860;9.198;2023-12-29T06:01:15;9.60;99.90
8595;DHT22;4335;48.860;9.198;2023-12-29T06:03:45;9.70;99.90
8595;DHT22;4335;48.860;9.198;2023-12-29T06:06:13;9.60;99.90
8595;DHT22;4335;48.860;9.198;2023-12-29T06:08:42;9.60;99.90
8595;DHT22;4335;48.860;9.198;2023-12-29T06:11:17;9.60;99.90
8595;DHT22;4335;48.860;9.198;2023-12-29T06:13:44;9.60;99.90
8595;DHT22;4335;48.860;9.198;2023-12-29T06:16:20;9.70;99.90
8595;DHT22;4335;48.860;9.198;2023-12-29T06:18:57;9.70;99.90
8595;DHT22;4335;48.860;9.198;2023-12-29T06:21:27;9.70;99.90
8595;DHT22;4335;48.860;9.198;2023-12-29T06:23:59;9.60;99.90
8595;DHT22;4335;48.860;9.198;2023-12-29T06:26:29;9.50;99.90
8595;DHT22;4335;48.860;9.198;2023-12-29T06:28:57;9.50;99.90
8595;DHT22;4335;48.860;9.198;2023-12-29T06:31:24;9.50;99.90
8595;DHT22;4335;48.860;9.198;2023-12-29T06:33:54;9.50;99.90
8595;DHT22;4335;48.860;9.198;2023-12-29T06:36:29;9.40;99.90
8595;DHT22;4335;48.860;9.198;2023-12-29T06:39:00;9.40;99.90
8595;DHT22;4335;48.860;9.198;2023-12-29T06:41:31;9.40;99.90
8595;DHT22;4335;48.860;9.198;2023-12-29T06:43:59;9.30;99.90
8595;DHT22;4335;48.860;9.198;2023-12-29T06:46:26;9.30;99.90
8595;DHT22;4335;48.860;9.198;2023-12-29T06:49:00;9.20;99.90
8595;DHT22;4335;48.860;9.198;2023-12-29T06:51:34;9.20;99.90
8595;DHT22;4335;48.860;9.198;2023-12-29T06:54:06;9.10;99.90
8595;DHT22;4335;48.860;9.198;2023-12-29T06:56:33;9.10;99.90
8595;DHT22;4335;48.860;9.198;2023-12-29T06:59:04;9.10;99.90
8595;DHT22;4335;48.860;9.198;2023-12-29T07:01:45;9.10;99.90
8595;DHT22;4335;48.860;9.198;2023-12-29T07:04:21;9.10;99.90
8595;DHT22;4335;48.860;9.198;2023-12-29T07:06:59;9.10;99.90
8595;DHT22;4335;48.860;9.198;2023-12-29T07:09:31;9.10;99.90
8595;DHT22;4335;48.860;9.198;2023-12-29T07:11:59;9.20;99.90
8595;DHT22;4335;48.860;9.198;2023-12-29T07:14:26;9.20;99.90
8595;DHT22;4335;48.860;9.198;2023-12-29T07:16:53;9.20;99.90
8595;DHT22;4335;48.860;9.198;2023-12-29T07:19:20;9.20;99.90
8595;DHT22;4335;48.860;9.198;2023-12-29T07:21:48;9.20;99.90
8595;DHT22;4335;48.860;9.198;2023-12-29T07:24:15;9.20;99.90
8595;DHT22;4335;48.860;9.198;2023-12-29T07:26:44;9.30;99.90
8595;DHT22;4335;48.860;9.198;2023-12-29T07:29:17;9.30;99.90
8595;DHT22;4335;48.860;9.198;2023-12-29T07:31:48;9.30;99.90
8595;DHT22;4335;48.860;9.198;2023-12-29T07:34:16;9.30;99.90
8595;DHT22;4335;48.860;9.198;2023-12-29T07:36:49;9.40;99.90
8595;DHT22;4335;48.860;9.198;2023-12-29T07:39:22;9.30;99.90
8595;DHT22;4335;48.860;9.198;2023-12-29T07:41:51;9.40;99.90
8595;DHT22;4335;48.860;9.198;2023-12-29T07:44:19;9.40;99.90
8595;DHT22;4335;48.860;9.198;2023-12-29T07:46:52;9.50;99.90
8595;DHT22;4335;48.860;9.198;2023-12-29T07:49:20;9.50;99.90
8595;DHT22;4335;48.860;9.198;2023-12-29T07:51:50;9.50;99.90
8595;DHT22;4335;48.860;9.198;2023-12-29T07:54:17;9.50;99.90
8595;DHT22;4335;48.860;9.198;2023-12-29T07:56:47;9.50;99.90
8595;DHT22;4335;48.860;9.198;2023-12-29T07:59:18;9.60;99.90
8595;DHT22;4335;48.860;9.198;2023-12-29T08:01:48;9.60;99.90
8595;DHT22;4335;48.860;9.198;2023-12-29T08:04:15;9.60;99.90
8595;DHT22;4335;48.860;9.198;2023-12-29T08:06:46;9.70;99.90
8595;DHT22;4335;48.860;9.198;2023-12-29T08:09:16;9.70;99.90
8595;DHT22;4335;48.860;9.198;2023-12-29T08:11:48;9.70;99.90
8595;DHT22;4335;48.860;9.198;2023-12-29T08:14:17;9.70;99.90
8595;DHT22;4335;48.860;9.198;2023-12-29T08:16:45;9.70;99.90
8595;DHT22;4335;48.860;9.198;2023-12-29T08:19:12;9.70;99.90
8595;DHT22;4335;48.860;9.198;2023-12-29T08:21:41;9.70;99.90
8595;DHT22;4335;48.860;9.198;2023-12-29T08:24:11;9.80;99.90
8595;DHT22;4335;48.860;9.198;2023-12-29T08:26:45;9.80;99.90
8595;DHT22;4335;48.860;9.198;2023-12-29T08:29:17;9.80;99.90
8595;DHT22;4335;48.860;9.198;2023-12-29T08:31:48;9.80;99.90
8595;DHT22;4335;48.860;9.198;2023-12-29T08:34:15;9.80;99.90
8595;DHT22;4335;48.860;9.198;2023-12-29T08:36:55;9.90;99.90
8595;DHT22;4335;48.860;9.198;2023-12-29T08:39:28;9.90;99.90
8595;DHT22;4335;48.860;9.198;2023-12-29T08:42:07;10.00;99.90
8595;DHT22;4335;48.860;9.198;2023-12-29T08:44:41;10.00;99.90
8595;DHT22;4335;48.860;9.198;2023-12-29T08:47:11;10.00;99.90
8595;DHT22;4335;48.860;9.198;2023-12-29T08:49:41;10.10;99.90
8595;DHT22;4335;48.860;9.198;2023-12-29T08:52:17;10.10;99.90
8595;DHT22;4335;48.860;9.198;2023-12-29T08:54:45;10.20;99.90
8595;DHT22;4335;48.860;9.198;2023-12-29T08:57:15;10.10;99.90
8595;DHT22;4335;48.860;9.198;2023-12-29T08:59:44;10.10;99.90
8595;DHT22;4335;48.860;9.198;2023-12-29T09:02:12;10.20;99.90
8595;DHT22;4335;48.860;9.198;2023-12-29T09:04:39;10.10;99.90
8595;DHT22;4335;48.860;9.198;2023-12-29T09:07:06;10.10;99.90
8595;DHT22;4335;48.860;9.198;2023-12-29T09:09:34;10.20;99.90
8595;DHT22;4335;48.860;9.198;2023-12-29T09:12:01;10.20;99.90
8595;DHT22;4335;48.860;9.198;2023-12-29T09:14:28;10.20;99.90
8595;DHT22;4335;48.860;9.198;2023-12-29T09:16:59;10.10;99.90
8595;DHT22;4335;48.860;9.198;2023-12-29T09:19:27;10.20;99.90
8595;DHT22;4335;48.860;9.198;2023-12-29T09:21:54;10.20;99.90
8595;DHT22;4335;48.860;9.198;2023-12-29T09:24:24;10.20;99.90
8595;DHT22;4335;48.860;9.198;2023-12-29T09:26:52;10.20;99.90
8595;DHT22;4335;48.860;9.198;2023-12-29T09:29:23;10.30;99.90
8595;DHT22;4335;48.860;9.198;2023-12-29T09:31:50;10.30;99.90
8595;DHT22;4335;48.860;9.198;2023-12-29T09:34:19;10.30;99.90
8595;DHT22;4335;48.860;9.198;2023-12-29T09:36:46;10.40;99.90
8595;DHT22;4335;48.860;9.198;2023-12-29T09:39:19;10.50;99.90
8595;DHT22;4335;48.860;9.198;2023-12-29T09:41:57;10.60;99.90
8595;DHT22;4335;48.860;9.198;2023-12-29T09:44:27;10.70;99.90
8595;DHT22;4335;48.860;9.198;2023-12-29T09:47:01;10.90;99.90
8595;DHT22;4335;48.860;9.198;2023-12-29T09:49:37;11.00;99.90
8595;DHT22;4335;48.860;9.198;2023-12-29T09:52:07;11.10;99.90
8595;DHT22;4335;48.860;9.198;2023-12-29T09:54:39;11.10;99.90
8595;DHT22;4335;48.860;9.198;2023-12-29T09:57:11;11.10;99.90
8595;DHT22;4335;48.860;9.198;2023-12-29T09:59:42;11.10;99.90
8595;DHT22;4335;48.860;9.198;2023-12-29T10:02:16;11.10;99.90
8595;DHT22;4335;48.860;9.198;2023-12-29T10:04:51;11.10;99.90
8595;DHT22;4335;48.860;9.198;2023-12-29T10:07:25;11.00;99.90
8595;DHT22;4335;48.860;9.198;2023-12-29T10:09:56;11.00;99.90
8595;DHT22;4335;48.860;9.198;2023-12-29T10:12:24;11.10;99.90
8595;DHT22;4335;48.860;9.198;2023-12-29T10:15:10;11.20;99.90
8595;DHT22;4335;48.860;9.198;2023-12-29T10:17:51;11.40;99.90
8595;DHT22;4335;48.860;9.198;2023-12-29T10:20:35;11.50;99.90
8595;DHT22;4335;48.860;9.198;2023-12-29T10:23:10;11.50;99.90
8595;DHT22;4335;48.860;9.198;2023-12-29T10:25:42;11.50;99.90
8595;DHT22;4335;48.860;9.198;2023-12-29T10:28:09;11.50;99.90
8595;DHT22;4335;48.860;9.198;2023-12-29T10:30:37;11.60;99.90
8595;DHT22;4335;48.860;9.198;2023-12-29T10:33:06;11.50;99.90
8595;DHT22;4335;48.860;9.198;2023-12-29T10:35:57;11.50;99.90
8595;DHT22;4335;48.860;9.198;2023-12-29T10:38:34;11.40;99.90
8595;DHT22;4335;48.860;9.198;2023-12-29T10:41:11;11.40;99.90
8595;DHT22;4335;48.860;9.198;2023-12-29T10:43:40;11.40;99.90
8595;DHT22;4335;48.860;9.198;2023-12-29T10:46:13;11.40;99.90
8595;DHT22;4335;48.860;9.198;2023-12-29T10:48:41;11.40;99.90
8595;DHT22;4335;48.860;9.198;2023-12-29T10:51:13;11.50;99.90
8595;DHT22;4335;48.860;9.198;2023-12-29T10:53:54;11.40;99.90
8595;DHT22;4335;48.860;9.198;2023-12-29T10:56:22;11.40;99.90
8595;DHT22;4335;48.860;9.198;2023-12-29T10:58:57;11.50;99.90
8595;DHT22;4335;48.860;9.198;2023-12-29T11:01:34;11.50;99.90
8595;DHT22;4335;48.860;9.198;2023-12-29T11:04:02;11.50;99.90
8595;DHT22;4335;48.860;9.198;2023-12-29T11:06:40;11.40;99.90
8595;DHT22;4335;48.860;9.198;2023-12-29T11:09:12;11.40;99.90
8595;DHT22;4335;48.860;9.198;2023-12-29T11:11:40;11.40;99.90
8595;DHT22;4335;48.860;9.198;2023-12-29T11:14:10;11.50;99.90
8595;DHT22;4335;48.860;9.198;2023-12-29T11:16:47;11.50;99.90
8595;DHT22;4335;48.860;9.198;2023-12-29T11:19:19;11.50;99.90
8595;DHT22;4335;48.860;9.198;2023-12-29T11:21:58;11.50;99.90
8595;DHT22;4335;48.860;9.198;2023-12-29T11:24:26;11.50;99.90
8595;DHT22;4335;48.860;9.198;2023-12-29T11:26:53;11.50;99.90
8595;DHT22;4335;48.860;9.198;2023-12-29T11:29:21;11.60;99.90
8595;DHT22;4335;48.860;9.198;2023-12-29T11:31:56;11.70;99.90
8595;DHT22;4335;48.860;9.198;2023-12-29T11:34:42;11.70;99.90
8595;DHT22;4335;48.860;9.198;2023-12-29T11:37:21;11.80;99.90
8595;DHT22;4335;48.860;9.198;2023-12-29T11:39:56;11.90;99.90
8595;DHT22;4335;48.860;9.198;2023-12-29T11:42:31;11.90;99.90
8595;DHT22;4335;48.860;9.198;2023-12-29T11:45:24;12.00;99.90
8595;DHT22;4335;48.860;9.198;2023-12-29T11:47:55;11.90;99.90
8595;DHT22;4335;48.860;9.198;2023-12-29T11:50:30;11.90;99.90
8595;DHT22;4335;48.860;9.198;2023-12-29T11:53:00;11.90;99.90
8595;DHT22;4335;48.860;9.198;2023-12-29T11:55:37;12.00;99.90
8595;DHT22;4335;48.860;9.198;2023-12-29T11:58:25;12.00;99.90
8595;DHT22;4335;48.860;9.198;2023-12-29T12:01:03;12.00;99.90
8595;DHT22;4335;48.860;9.198;2023-12-29T12:03:31;12.20;99.90
8595;DHT22;4335;48.860;9.198;2023-12-29T12:05:58;12.20;99.90
8595;DHT22;4335;48.860;9.198;2023-12-29T12:08:34;12.30;99.90
8595;DHT22;4335;48.860;9.198;2023-12-29T12:14:47;12.40;99.90
8595;DHT22;4335;48.860;9.198;2023-12-29T12:17:31;12.50;99.90
8595;DHT22;4335;48.860;9.198;2023-12-29T12:20:04;12.50;99.90
8595;DHT22;4335;48.860;9.198;2023-12-29T12:22:35;12.50;99.90
8595;DHT22;4335;48.860;9.198;2023-12-29T12:25:07;12.50;99.90
8595;DHT22;4335;48.860;9.198;2023-12-29T12:27:38;12.50;99.90
8595;DHT22;4335;48.860;9.198;2023-12-29T12:30:07;12.50;99.90
8595;DHT22;4335;48.860;9.198;2023-12-29T12:32:39;12.50;99.90
8595;DHT22;4335;48.860;9.198;2023-12-29T12:35:16;12.60;99.90
8595;DHT22;4335;48.860;9.198;2023-12-29T12:37:50;12.70;99.90
8595;DHT22;4335;48.860;9.198;2023-12-29T12:40:28;12.70;99.90
8595;DHT22;4335;48.860;9.198;2023-12-29T12:42:56;12.70;99.90
8595;DHT22;4335;48.860;9.198;2023-12-29T12:45:34;12.70;99.90
8595;DHT22;4335;48.860;9.198;2023-12-29T12:48:13;12.60;99.90
8595;DHT22;4335;48.860;9.198;2023-12-29T12:50:43;12.60;99.90
8595;DHT22;4335;48.860;9.198;2023-12-29T12:53:12;12.50;99.90
8595;DHT22;4335;48.860;9.198;2023-12-29T12:55:49;12.50;99.90
8595;DHT22;4335;48.860;9.198;2023-12-29T12:58:22;12.40;99.90
8595;DHT22;4335;48.860;9.198;2023-12-29T13:00:50;12.40;99.90
8595;DHT22;4335;48.860;9.198;2023-12-29T13:03:17;12.40;99.90
8595;DHT22;4335;48.860;9.198;2023-12-29T13:05:53;12.40;99.90
8595;DHT22;4335;48.860;9.198;2023-12-29T13:08:26;12.40;99.90
8595;DHT22;4335;48.860;9.198;2023-12-29T13:10:53;12.40;99.90
8595;DHT22;4335;48.860;9.198;2023-12-29T13:13:23;12.40;99.90
8595;DHT22;4335;48.860;9.198;2023-12-29T13:16:00;12.30;99.90
8595;DHT22;4335;48.860;9.198;2023-12-29T13:18:36;12.30;99.90
8595;DHT22;4335;48.860;9.198;2023-12-29T13:21:04;12.30;99.90
8595;DHT22;4335;48.860;9.198;2023-12-29T13:23:40;12.30;99.90
8595;DHT22;4335;48.860;9.198;2023-12-29T13:26:09;12.20;99.90
8595;DHT22;4335;48.860;9.198;2023-12-29T13:28:39;12.30;99.90
8595;DHT22;4335;48.860;9.198;2023-12-29T13:31:09;12.20;99.90
8595;DHT22;4335;48.860;9.198;2023-12-29T13:33:46;12.20;99.90
8595;DHT22;4335;48.860;9.198;2023-12-29T13:36:23;12.10;99.90
8595;DHT22;4335;48.860;9.198;2023-12-29T13:38:55;12.20;99.90
8595;DHT22;4335;48.860;9.198;2023-12-29T13:41:23;12.20;99.90
8595;DHT22;4335;48.860;9.198;2023-12-29T13:43:54;12.20;99.90
8595;DHT22;4335;48.860;9.198;2023-12-29T13:46:22;12.10;99.90
8595;DHT22;4335;48.860;9.198;2023-12-29T13:48:53;12.10;99.90
8595;DHT22;4335;48.860;9.198;2023-12-29T13:51:27;12.20;99.90
8595;DHT22;4335;48.860;9.198;2023-12-29T13:54:00;12.10;99.90
8595;DHT22;4335;48.860;9.198;2023-12-29T13:56:27;12.10;99.90
8595;DHT22;4335;48.860;9.198;2023-12-29T13:59:00;12.10;99.90
8595;DHT22;4335;48.860;9.198;2023-12-29T14:01:35;12.00;99.90
8595;DHT22;4335;48.860;9.198;2023-12-29T14:04:12;12.00;99.90
8595;DHT22;4335;48.860;9.198;2023-12-29T14:06:48;12.00;99.90
8595;DHT22;4335;48.860;9.198;2023-12-29T14:09:16;12.00;99.90
8595;DHT22;4335;48.860;9.198;2023-12-29T14:11:47;12.00;99.90
8595;DHT22;4335;48.860;9.198;2023-12-29T14:14:14;12.00;99.90
8595;DHT22;4335;48.860;9.198;2023-12-29T14:16:41;11.90;99.90
8595;DHT22;4335;48.860;9.198;2023-12-29T14:19:09;11.90;99.90
8595;DHT22;4335;48.860;9.198;2023-12-29T14:21:36;11.90;99.90
8595;DHT22;4335;48.860;9.198;2023-12-29T14:24:21;11.90;99.90
8595;DHT22;4335;48.860;9.198;2023-12-29T14:26:55;11.80;99.90
8595;DHT22;4335;48.860;9.198;2023-12-29T14:29:26;11.90;99.90
8595;DHT22;4335;48.860;9.198;2023-12-29T14:31:56;11.80;99.90
8595;DHT22;4335;48.860;9.198;2023-12-29T14:34:25;11.80;99.90
8595;DHT22;4335;48.860;9.198;2023-12-29T14:36:52;11.80;99.90
8595;DHT22;4335;48.860;9.198;2023-12-29T14:39:18;11.80;99.90
8595;DHT22;4335;48.860;9.198;2023-12-29T14:41:45;11.80;99.90
8595;DHT22;4335;48.860;9.198;2023-12-29T14:44:18;11.80;99.90
8595;DHT22;4335;48.860;9.198;2023-12-29T14:46:45;11.70;99.90
8595;DHT22;4335;48.860;9.198;2023-12-29T14:49:12;11.80;99.90
8595;DHT22;4335;48.860;9.198;2023-12-29T14:51:39;11.80;99.90
8595;DHT22;4335;48.860;9.198;2023-12-29T14:54:12;11.80;99.90
8595;DHT22;4335;48.860;9.198;2023-12-29T14:56:38;11.90;99.90
8595;DHT22;4335;48.860;9.198;2023-12-29T14:59:05;11.70;99.90
8595;DHT22;4335;48.860;9.198;2023-12-29T15:01:38;11.70;99.90
8595;DHT22;4335;48.860;9.198;2023-12-29T15:04:10;11.70;99.90
8595;DHT22;4335;48.860;9.198;2023-12-29T15:06:42;11.70;99.90
8595;DHT22;4335;48.860;9.198;2023-12-29T15:09:14;11.70;99.90
8595;DHT22;4335;48.860;9.198;2023-12-29T15:11:41;11.70;99.90
8595;DHT22;4335;48.860;9.198;2023-12-29T15:14:11;11.60;99.90
8595;DHT22;4335;48.860;9.198;2023-12-29T15:16:40;11.60;99.90
8595;DHT22;4335;48.860;9.198;2023-12-29T15:19:07;11.60;99.90
8595;DHT22;4335;48.860;9.198;2023-12-29T15:21:41;11.60;99.90
8595;DHT22;4335;48.860;9.198;2023-12-29T15:24:10;11.60;99.90
8595;DHT22;4335;48.860;9.198;2023-12-29T15:26:39;11.60;99.90
8595;DHT22;4335;48.860;9.198;2023-12-29T15:29:06;11.60;99.90
8595;DHT22;4335;48.860;9.198;2023-12-29T15:31:42;11.60;99.90
8595;DHT22;4335;48.860;9.198;2023-12-29T15:34:09;11.60;99.90
8595;DHT22;4335;48.860;9.198;2023-12-29T15:36:40;11.60;99.90
8595;DHT22;4335;48.860;9.198;2023-12-29T15:39:07;11.50;99.90
8595;DHT22;4335;48.860;9.198;2023-12-29T15:41:36;11.50;99.90
8595;DHT22;4335;48.860;9.198;2023-12-29T15:44:03;11.60;99.90
8595;DHT22;4335;48.860;9.198;2023-12-29T15:46:32;11.60;99.90
8595;DHT22;4335;48.860;9.198;2023-12-29T15:49:01;11.60;99.90
8595;DHT22;4335;48.860;9.198;2023-12-29T15:51:30;11.60;99.90
8595;DHT22;4335;48.860;9.198;2023-12-29T15:54:00;11.50;99.90
8595;DHT22;4335;48.860;9.198;2023-12-29T15:56:29;11.50;99.90
8595;DHT22;4335;48.860;9.198;2023-12-29T15:59:02;11.50;99.90
8595;DHT22;4335;48.860;9.198;2023-12-29T16:01:29;11.50;99.90
8595;DHT22;4335;48.860;9.198;2023-12-29T16:03:56;11.50;99.90
8595;DHT22;4335;48.860;9.198;2023-12-29T16:06:25;11.50;99.90
8595;DHT22;4335;48.860;9.198;2023-12-29T16:08:52;11.50;99.90
8595;DHT22;4335;48.860;9.198;2023-12-29T16:11:21;11.50;99.90
8595;DHT22;4335;48.860;9.198;2023-12-29T16:13:50;11.50;99.90
8595;DHT22;4335;48.860;9.198;2023-12-29T16:16:17;11.40;99.90
8595;DHT22;4335;48.860;9.198;2023-12-29T16:18:44;11.40;99.90
8595;DHT22;4335;48.860;9.198;2023-12-29T16:21:17;11.30;99.90
8595;DHT22;4335;48.860;9.198;2023-12-29T16:23:47;11.30;99.90
8595;DHT22;4335;48.860;9.198;2023-12-29T16:26:16;11.30;99.90
8595;DHT22;4335;48.860;9.198;2023-12-29T16:28:43;11.20;99.90
8595;DHT22;4335;48.860;9.198;2023-12-29T16:31:10;11.20;99.90
8595;DHT22;4335;48.860;9.198;2023-12-29T16:33:47;11.10;99.90